Anaktuvuk Pass

About
Name: Anaktuvuk Pass
Identifier:  AKP/PAKP
Local Time:  22. Aug 21:33 AKDT
Description: The Anaktuvuk Pass is a mountain pass located in Gates of the Arctic National Park and Preserve in North Slope Borough in northern Alaska. The Anaktuvuk Pass is in the Brooks Range which divides the Anaktuvuk River with the John River.
Source: Wikipedia
Location
Anaktuvuk Pass
  United States

Flights per Day
2 flights
Distance: 391km (243mi)
Punctuality
75% (0 flights per day delayed)
Delay Average: 59 minutes
Current Weather
 3 C (Humidity: 93%)
  8kt (14km/h / 9mph) from 30°
  Scattered clouds at 2,500 feet (762 meter)
  Overcast at 3,300 feet (1,005 meter)
  16km (10 mi.)
 Light/Moderate: Rain
 METAR PAKP 230510Z AUTO 03008KT 10SM -RA SCT025 OVC033 03/02 A2964 RMK AO2 UPE08RAB08 P0000

Current Flights

Departures
Number Departure To Airline
Arrivals
Number Arrival From Airline
 8V300 10:45  Fairbanks  Astral Aviation
 8V320 14:45  Fairbanks  Astral Aviation

Current Delays

Departures
N/A
Arrivals
N/A

Destinations

Top Destinations
Airport Flights
per week
Seats
per week
  Barrow (BRW) 0 - 0 0
  Fairbanks (FAI) 0 - 0 0

Airlines & Planes

Top Airlines
Airline Flights
per Day
Seats
per Day
  Era Alaska 0 2
Top Plane Types
Model Flights Seats
Beech 1900D 0.1/day - 0